Date,TemperatureHighF,TemperatureAvgF,TemperatureLowF,DewpointHighF,DewpointAvgF,DewpointLowF,HumidityHigh,HumidityAvg,HumidityLow,PressureMaxIn,PressureMinIn,WindSpeedMaxMPH,WindSpeedAvgMPH,GustSpeedMaxMPH,PrecipitationSumIn
2014-1-1,41,38,33,40,37,32,98,98,98,30.31,30.22,3,0,3,0.00
2014-1-2,48,40,35,44,39,35,98,97,83,30.28,30.04,4,0,4,0.00
2014-1-3,51,42,32,46,38,31,98,88,61,30.28,30.04,13,2,13,0.00
2014-1-4,49,36,26,36,31,25,98,81,51,30.37,30.25,17,3,17,0.00
2014-1-5,53,33,22,36,26,21,98,80,39,30.40,30.22,9,1,9,0.00
2014-1-6,44,35,27,37,31,25,98,86,63,30.25,30.13,4,0,4,0.12
2014-1-7,46,43,38,46,42,37,98,98,98,30.16,29.99,2,0,2,0.33
2014-1-8,52,47,44,51,46,42,98,98,91,30.07,29.84,9,1,11,0.24
2014-1-9,48,44,40,48,44,40,98,97,90,30.13,29.93,10,1,11,0.05
2014-1-10,52,49,45,51,47,43,98,94,71,30.19,29.78,13,1,13,0.05
2014-1-11,54,47,43,50,44,40,98,89,68,30.07,29.66,15,4,17,0.08
2014-1-12,53,46,40,52,46,40,98,98,91,30.49,30.04,10,2,10,0.54
2014-1-13,57,46,37,53,44,36,98,93,67,30.64,30.46,4,0,4,0.04
2014-1-14,43,39,35,43,38,34,98,98,98,30.64,30.52,3,0,3,0.04
2014-1-15,39,37,35,38,37,35,98,98,98,30.55,30.40,5,1,5,0.00
2014-1-16,39,36,34,39,35,33,98,98,96,30.43,30.25,6,1,6,0.00
2014-1-17,38,35,33,37,34,32,98,98,98,30.28,30.16,4,1,4,0.00
2014-1-18,38,34,32,37,34,32,98,98,98,30.28,30.16,4,0,4,0.00
2014-1-19,38,34,31,38,34,31,98,98,98,30.22,30.10,3,0,4,0.00
2014-1-20,48,36,31,40,34,30,98,94,71,30.28,30.19,4,0,5,0.00
2014-1-21,38,33,29,37,32,29,98,97,91,30.34,30.22,4,0,4,0.00
2014-1-22,53,41,34,45,39,33,98,91,68,30.37,30.25,15,2,15,0.00
2014-1-23,58,45,32,38,31,26,95,61,42,30.28,30.16,26,7,29,0.00
2014-1-24,62,41,28,36,29,24,91,65,35,30.31,30.19,11,1,13,0.00
2014-1-25,56,38,28,34,30,26,96,76,42,30.37,30.19,5,0,5,0.00
2014-1-26,55,37,27,36,31,27,98,81,47,30.19,30.04,4,0,5,0.00
2014-1-27,41,36,31,37,34,30,98,91,68,30.22,30.04,3,0,3,0.08
2014-1-28,43,39,37,42,39,37,98,98,98,30.22,29.93,3,0,3,0.13
2014-1-29,59,48,43,49,45,39,98,88,61,29.99,29.84,15,3,17,0.04
2014-1-30,55,44,38,44,38,32,98,80,49,30.01,29.93,6,2,8,0.04
2014-1-31,52,40,35,46,38,35,98,93,69,30.13,29.99,7,0,8,0.04